• Join FlightAware (Why Join?)
  • Login
  • US Flag 
01:49PM EDT


 

Airport Tracker/Info


-or-


 

Live Flight TrackerFlight Track Log ✈ ELO784 ✈ 07-May-2012 ✈ EVRA / RIX - EPWA / WAW

Flight Track Log - Related Links

Times and Time Zones

All times are in EDT time to prevent confusion due to time zone crossing. See the ELO784 flight status page for this flight to view local times or setup timezone preferences in your user account.

Time Position Orientation Groundspeed Altitude Reporting Facility
EDT Latitude Longitude Course Direction KTS MPH feet Rate Location/Type
08:46AM 54.3465 22.2518 200° South  Level Estimated
08:47AM 54.2871 22.2148 200° South  Level Estimated
08:48AM 54.2276 22.1780 200° South  Level Estimated
08:49AM 54.1681 22.1413 200° South  Level Estimated
08:50AM 54.1086 22.1047 200° South  Level Estimated
08:51AM 54.0491 22.0682 200° South  Level Estimated
08:52AM 53.9896 22.0317 200° South  Level Estimated
08:53AM 53.9300 21.9954 200° South  Level Estimated
08:54AM 53.8705 21.9592 200° South  Level Estimated
08:55AM 53.8109 21.9231 200° South  Level Estimated
08:56AM 53.7514 21.8871 200° South  Level Estimated
08:57AM 53.6918 21.8513 200° South  Level Estimated
08:58AM 53.6322 21.8155 200° South  Level Estimated
08:59AM 53.5726 21.7798 200° South  Level Estimated
09:00AM 53.5130 21.7442 200° South  Level Estimated
09:01AM 53.4534 21.7087 199° South  Level Estimated
09:02AM 53.3937 21.6733 199° South  Level Estimated
09:03AM 53.3341 21.6380 199° South  Level Estimated
09:04AM 53.2744 21.6028 199° South  Level Estimated
09:05AM 53.2148 21.5677 199° South  Level Estimated
09:06AM 53.1551 21.5327 199° South  Level Estimated
09:07AM 53.0954 21.4978 199° South  Level Estimated
09:08AM 53.0357 21.4630 199° South  Level Estimated
09:09AM 52.9760 21.4283 199° South  Level Estimated
09:10AM 52.9163 21.3937 199° South  Level Estimated
09:11AM 52.8566 21.3592 199° South  Level Estimated
09:12AM 52.7968 21.3248 199° South  Level Estimated
09:13AM 52.7371 21.2904 199° South  Level Estimated
09:14AM 52.6773 21.2562 199° South  Level Estimated
09:15AM 52.6176 21.2221 199° South  Level Estimated
09:16AM 52.5578 21.1880 199° South  Level Estimated
09:17AM 52.4980 21.1541 199° South  Level Estimated
09:18AM 52.4382 21.1202 199° South  Level Estimated
09:19AM 52.3784 21.0864 199° South  Level Estimated
09:20AM 52.3186 21.0528 199° South  Level Estimated
09:21AM 52.2588 21.0192 199° South  Level Estimated
09:22AM 52.1990 20.9857 199° South  Level Estimated
09:23AM 52.1391 20.9523 19° North  Level Estimated
09:24AM 52.1990 20.9857 199° South  Level Estimated
09:25AM 52.1391 20.9523 19° North  Level Estimated
09:26AM 52.1990 20.9857 199° South  Level Estimated
09:27AM 52.1391 20.9523 19° North  Level Estimated
09:28AM 52.1990 20.9857 199° South  Level Estimated
09:29AM 52.1391 20.9523 19° North  Level Estimated
09:30AM 52.1990 20.9857 199° South  Level Estimated
09:31AM 52.1391 20.9523 19° North  Level Estimated
09:32AM 52.1990 20.9857 199° South  Level Estimated
09:33AM 52.1391 20.9523 19° North  Level Estimated
09:34AM 52.1990 20.9857 199° South  Level Estimated
09:35AM 52.1391 20.9523 19° North  Level Estimated
09:36AM 52.1990 20.9857 199° South  Level Estimated
09:37AM 52.1391 20.9523 19° North  Level Estimated
09:38AM 52.1990 20.9857 19° North  Level Estimated